createdAt,value
2019-03-12T00:03:37.183Z,97142.11
2019-03-12T00:07:39.150Z,97133.95
2019-03-12T00:11:41.066Z,97132.60
2019-03-12T00:15:43.046Z,97142.38
2019-03-12T00:19:44.949Z,97152.48
2019-03-12T00:23:46.843Z,97161.00
2019-03-12T00:27:48.807Z,97171.09
2019-03-12T00:31:51.678Z,97177.94
2019-03-12T00:35:53.583Z,97190.03
2019-03-12T00:39:55.487Z,97197.55
2019-03-12T00:43:57.395Z,97214.51
2019-03-12T00:47:59.271Z,97227.24
2019-03-12T00:52:01.699Z,97227.72
2019-03-12T00:56:03.600Z,97231.96
2019-03-12T01:00:18.400Z,97240.14
2019-03-12T01:04:20.297Z,97240.63
2019-03-12T01:08:22.197Z,97236.04
2019-03-12T01:12:24.081Z,97243.89
2019-03-12T01:16:25.987Z,97250.41
2019-03-12T01:20:27.887Z,97250.58
2019-03-12T01:24:29.785Z,97255.48
2019-03-12T01:28:31.748Z,97268.50
2019-03-12T01:32:33.721Z,97271.95
2019-03-12T01:36:35.615Z,97280.45
2019-03-12T01:40:37.514Z,97282.13
2019-03-12T01:44:39.415Z,97290.92
2019-03-12T01:48:41.313Z,97290.27
2019-03-12T01:52:43.277Z,97297.80
2019-03-12T01:56:45.263Z,97316.39
2019-03-12T02:00:47.165Z,97325.39
2019-03-12T02:04:49.069Z,97327.48
2019-03-12T02:08:51.009Z,97328.48
2019-03-12T02:12:52.900Z,97346.44
2019-03-12T02:16:54.871Z,97346.10
2019-03-12T02:20:56.780Z,97345.80
2019-03-12T02:24:58.679Z,97347.59
2019-03-12T02:29:00.631Z,97345.30
2019-03-12T02:33:02.549Z,97356.06
2019-03-12T02:37:05.513Z,97358.19
2019-03-12T02:41:07.415Z,97356.22
2019-03-12T02:45:16.931Z,97369.96
2019-03-12T02:49:19.077Z,97371.25
2019-03-12T02:53:20.972Z,97393.44
2019-03-12T02:57:22.885Z,97397.53
2019-03-12T03:01:24.795Z,97398.69
2019-03-12T03:05:26.825Z,97404.40
2019-03-12T03:09:28.715Z,97399.34
2019-03-12T03:13:31.906Z,97398.86
2019-03-12T03:17:33.832Z,97409.79
2019-03-12T03:21:35.719Z,97400.95
2019-03-12T03:25:37.624Z,97400.97
2019-03-12T03:29:39.572Z,97397.70
2019-03-12T03:33:41.497Z,97401.95
2019-03-12T03:37:43.361Z,97408.48
2019-03-12T03:41:45.257Z,97406.52
2019-03-12T03:45:47.152Z,97416.01
2019-03-12T03:49:49.054Z,97410.78
2019-03-12T03:53:50.993Z,97409.14
2019-03-12T03:57:52.885Z,97413.88
2019-03-12T04:01:54.793Z,97412.91
2019-03-12T04:05:56.706Z,97415.83
2019-03-12T04:09:58.610Z,97414.19
2019-03-12T04:14:00.509Z,97426.45
2019-03-12T04:18:02.415Z,97436.90
2019-03-12T04:22:04.455Z,97441.47
2019-03-12T04:26:06.356Z,97439.83
2019-03-12T04:30:16.957Z,97436.25
2019-03-12T04:34:18.922Z,97423.84
2019-03-12T04:38:20.819Z,97414.84
2019-03-12T04:42:22.723Z,97417.47
2019-03-12T04:46:24.638Z,97420.90
2019-03-12T04:50:26.533Z,97422.52
2019-03-12T04:54:28.481Z,97420.56
2019-03-12T04:58:30.385Z,97421.39
2019-03-12T05:02:32.294Z,97430.03
2019-03-12T05:06:34.210Z,97435.27
2019-03-12T05:10:37.100Z,97439.49
2019-03-12T05:14:39.189Z,97444.39
2019-03-12T05:18:41.274Z,97445.39
2019-03-12T05:22:43.164Z,97440.17
2019-03-12T05:26:45.074Z,97441.63
2019-03-12T05:30:46.972Z,97438.84
2019-03-12T05:34:49.161Z,97440.97
2019-03-12T05:38:51.065Z,97431.32
2019-03-12T05:42:52.971Z,97435.41
2019-03-12T05:46:54.880Z,97437.22
2019-03-12T05:50:56.820Z,97438.84
2019-03-12T05:54:58.824Z,97451.08
2019-03-12T05:59:00.732Z,97456.13
2019-03-12T06:03:02.639Z,97460.70
2019-03-12T06:07:18.875Z,97453.38
2019-03-12T06:11:20.773Z,97465.62
2019-03-12T06:15:22.692Z,97462.35
2019-03-12T06:19:24.601Z,97472.97
2019-03-12T06:23:26.514Z,97467.27
2019-03-12T06:27:28.417Z,97471.02
2019-03-12T06:31:34.963Z,97464.48
2019-03-12T06:35:54.777Z,97407.81
2019-03-12T06:40:01.544Z,97467.59
2019-03-12T06:44:05.090Z,97469.53
2019-03-12T06:48:14.375Z,97466.30
2019-03-12T06:52:28.257Z,97464.81
2019-03-12T06:56:29.932Z,97472.17
2019-03-12T07:00:45.080Z,97479.69
2019-03-12T07:04:51.541Z,97483.43
2019-03-12T07:08:57.837Z,97482.95
2019-03-12T07:13:01.468Z,97492.09
2019-03-12T07:17:07.957Z,97493.41
2019-03-12T07:21:11.480Z,97486.21
2019-03-12T07:25:20.255Z,97490.12
2019-03-12T07:29:41.926Z,97495.35
2019-03-12T07:33:45.466Z,97494.41
2019-03-12T07:37:57.835Z,97483.44
2019-03-12T07:41:59.464Z,97485.22
2019-03-12T07:46:15.132Z,97483.91
2019-03-12T07:50:24.398Z,97474.09
2019-03-12T07:54:30.365Z,97475.06
2019-03-12T07:58:40.117Z,97473.25
2019-03-12T08:02:55.630Z,97472.25
2019-03-12T08:07:04.700Z,97462.24
2019-03-12T08:11:08.242Z,97461.71
2019-03-12T08:15:30.787Z,97455.95
2019-03-12T08:19:37.015Z,97449.77
2019-03-12T08:23:49.309Z,97443.84
2019-03-12T08:27:59.653Z,97439.14
2019-03-12T08:32:06.048Z,97428.17
2019-03-12T08:36:07.723Z,97438.31
2019-03-12T08:40:10.338Z,97434.45
2019-03-12T08:44:30.024Z,97435.67
2019-03-12T08:48:33.674Z,97427.07
2019-03-12T08:52:39.666Z,97432.89
2019-03-12T08:56:43.216Z,97431.94
2019-03-12T09:00:52.952Z,97422.13
2019-03-12T09:05:12.810Z,97419.36
2019-03-12T09:09:19.137Z,97412.01
2019-03-12T09:13:20.804Z,97403.20
2019-03-12T09:17:27.059Z,97396.90
2019-03-12T09:21:34.454Z,97397.51
2019-03-12T09:25:37.991Z,97392.70
2019-03-12T09:29:39.671Z,97371.36
2019-03-12T09:33:59.460Z,97383.80
2019-03-12T09:38:06.067Z,97374.22
2019-03-12T09:42:18.859Z,97371.94
2019-03-12T09:46:25.196Z,97365.20
2019-03-12T09:50:28.742Z,97350.47
2019-03-12T09:54:39.313Z,97352.47
2019-03-12T09:58:48.595Z,97347.72
2019-03-12T10:02:52.151Z,97350.34
2019-03-12T10:07:01.589Z,97344.14
2019-03-12T10:11:07.713Z,97339.02
2019-03-12T10:15:27.178Z,97336.95
2019-03-12T10:19:42.603Z,97324.43
2019-03-12T10:23:52.103Z,97301.14
2019-03-12T10:27:56.705Z,97305.46
2019-03-12T10:32:00.263Z,97306.66
2019-03-12T10:36:20.264Z,97291.22
2019-03-12T10:40:35.875Z,97296.11
2019-03-12T10:44:39.423Z,97286.69
2019-03-12T10:48:41.500Z,97277.24
2019-03-12T10:52:43.419Z,97270.77
2019-03-12T10:56:45.313Z,97260.69
2019-03-12T11:00:47.285Z,97255.12
2019-03-12T11:04:49.193Z,97256.55
2019-03-12T11:08:51.099Z,97248.92
2019-03-12T11:12:53.000Z,97243.55
2019-03-12T11:16:54.919Z,97237.98
2019-03-12T11:20:58.715Z,97234.74
2019-03-12T11:25:00.406Z,97223.77
2019-03-12T11:29:02.304Z,97212.52
2019-03-12T11:33:04.260Z,97205.55
2019-03-12T11:37:06.182Z,97208.31
2019-03-12T11:41:08.149Z,97201.41
2019-03-12T11:45:17.075Z,97190.71
2019-03-12T11:49:16.483Z,97176.02
2019-03-12T11:53:18.369Z,97171.00
2019-03-12T11:57:20.344Z,97168.80
2019-03-12T12:01:22.344Z,97150.54
2019-03-12T12:05:24.229Z,97143.13
2019-03-12T12:09:26.129Z,97126.55
2019-03-12T12:13:28.044Z,97126.16
2019-03-12T12:17:29.942Z,97110.05
2019-03-12T12:21:32.218Z,97109.91
2019-03-12T12:25:34.200Z,97101.27
2019-03-12T12:29:36.114Z,97058.91
2019-03-12T12:33:37.995Z,97086.16
2019-03-12T12:37:40.033Z,97078.42
2019-03-12T12:41:41.936Z,97069.77
2019-03-12T12:45:44.998Z,97057.68
2019-03-12T12:49:46.948Z,97038.72
2019-03-12T12:53:48.842Z,97031.22
2019-03-12T12:57:50.744Z,97009.05
2019-03-12T13:01:52.652Z,97000.77
2019-03-12T13:05:55.781Z,96991.49
2019-03-12T13:09:57.839Z,96979.76
2019-03-12T13:13:59.744Z,96972.88
2019-03-12T13:18:01.666Z,96970.34
2019-03-12T13:22:03.599Z,96956.77
2019-03-12T13:26:05.498Z,96940.92
2019-03-12T13:30:16.954Z,96929.90
2019-03-12T13:34:18.849Z,96917.03
2019-03-12T13:38:20.765Z,96916.03
2019-03-12T13:42:22.848Z,96902.98
2019-03-12T13:46:24.757Z,96894.62
2019-03-12T13:50:27.126Z,96875.66
2019-03-12T13:54:29.978Z,96864.33
2019-03-12T13:58:32.292Z,96858.55
2019-03-12T14:02:34.214Z,96862.48
2019-03-12T14:06:37.591Z,96848.27
2019-03-12T14:10:39.732Z,96846.02
2019-03-12T14:14:41.912Z,96840.97
2019-03-12T14:18:43.829Z,96833.45
2019-03-12T14:22:45.748Z,96829.73
2019-03-12T14:26:47.665Z,96817.64
2019-03-12T14:30:49.719Z,96805.72
2019-03-12T14:34:51.622Z,96801.55
2019-03-12T14:38:53.616Z,96792.19
2019-03-12T14:42:55.524Z,96776.22
2019-03-12T14:46:57.441Z,96761.73
2019-03-12T14:50:59.350Z,96754.02
2019-03-12T14:55:01.259Z,96745.45
2019-03-12T14:59:03.710Z,96743.28
2019-03-12T15:03:05.775Z,96723.31
2019-03-12T15:07:07.711Z,96723.45
2019-03-12T15:11:09.603Z,96723.06
2019-03-12T15:15:13.513Z,96696.11
2019-03-12T15:19:15.669Z,96702.02
2019-03-12T15:23:17.935Z,96694.88
2019-03-12T15:27:19.835Z,96694.88
2019-03-12T15:31:21.736Z,96684.27
2019-03-12T15:35:23.633Z,96670.91
2019-03-12T15:39:25.524Z,96657.92
2019-03-12T15:43:27.431Z,96653.91
2019-03-12T15:47:29.339Z,96637.05
2019-03-12T15:51:32.481Z,96639.39
2019-03-12T15:55:34.365Z,96632.42
2019-03-12T15:59:36.283Z,96624.42
2019-03-12T16:03:38.197Z,96614.63
2019-03-12T16:07:40.111Z,96602.91
2019-03-12T16:11:42.016Z,96598.94
2019-03-12T16:15:43.903Z,96581.73
2019-03-12T16:19:45.839Z,96572.44
2019-03-12T16:23:47.699Z,96568.42
2019-03-12T16:27:49.598Z,96550.78
2019-03-12T16:31:52.685Z,96536.64
2019-03-12T16:35:54.570Z,96523.08
2019-03-12T16:39:56.789Z,96515.25
2019-03-12T16:43:59.651Z,96503.23
2019-03-12T16:48:01.758Z,96494.98
2019-03-12T16:52:04.611Z,96496.22
2019-03-12T16:56:06.583Z,96488.16
2019-03-12T17:00:15.285Z,96485.45
2019-03-12T17:04:17.195Z,96477.11
2019-03-12T17:08:19.178Z,96461.58
2019-03-12T17:12:21.073Z,96452.33
2019-03-12T17:16:22.956Z,96449.37
2019-03-12T17:20:25.135Z,96444.11
2019-03-12T17:24:27.011Z,96429.33
2019-03-12T17:28:28.932Z,96423.91
2019-03-12T17:32:30.842Z,96413.38
2019-03-12T17:36:32.727Z,96406.92
2019-03-12T17:40:34.633Z,96404.63
2019-03-12T17:44:36.531Z,96401.16
2019-03-12T17:48:38.434Z,96397.78
2019-03-12T17:52:40.344Z,96391.94
2019-03-12T17:56:42.229Z,96390.83
2019-03-12T18:00:45.416Z,96375.16
2019-03-12T18:04:47.317Z,96370.77
2019-03-12T18:08:49.219Z,96374.27
2019-03-12T18:12:51.112Z,96359.88
2019-03-12T18:16:53.010Z,96352.98
2019-03-12T18:20:54.982Z,96339.21
2019-03-12T18:24:56.882Z,96328.58
2019-03-12T18:28:59.401Z,96315.58
2019-03-12T18:33:01.356Z,96314.77
2019-03-12T18:37:10.578Z,96297.93
2019-03-12T18:41:15.236Z,96294.71
2019-03-12T18:45:23.413Z,96282.94
2019-03-12T18:49:25.305Z,96268.50
2019-03-12T18:53:27.207Z,96256.86
2019-03-12T18:57:29.112Z,96252.61
2019-03-12T19:01:32.481Z,96244.14
2019-03-12T19:05:34.398Z,96241.91
2019-03-12T19:09:36.304Z,96231.19
2019-03-12T19:13:38.283Z,96213.98
2019-03-12T19:17:41.209Z,96202.35
2019-03-12T19:21:43.193Z,96196.39
2019-03-12T19:25:48.247Z,96191.30
2019-03-12T19:29:50.152Z,96188.36
2019-03-12T19:33:53.428Z,96178.58
2019-03-12T19:37:57.415Z,96166.91
2019-03-12T19:41:59.326Z,96165.26
2019-03-12T19:46:01.209Z,96159.62
2019-03-12T19:50:06.165Z,96156.62
2019-03-12T19:54:08.057Z,96153.45
2019-03-12T19:58:10.248Z,96145.28
2019-03-12T20:02:16.434Z,96121.91
2019-03-12T20:06:15.729Z,96114.16
2019-03-12T20:10:57.395Z,96109.04
2019-03-12T20:15:21.318Z,96097.06
2019-03-12T20:19:56.593Z,96082.83
2019-03-12T20:24:55.227Z,96068.73
2019-03-12T20:29:21.438Z,96065.64
2019-03-12T20:33:39.702Z,96063.04
2019-03-12T20:38:25.682Z,96050.38
2019-03-12T20:42:57.764Z,96043.39
2019-03-12T20:47:38.708Z,96033.17
2019-03-12T20:52:18.822Z,96025.14
2019-03-12T20:56:51.921Z,96026.03
2019-03-12T21:01:23.184Z,96026.06
2019-03-12T21:06:16.677Z,96024.72
2019-03-12T21:11:00.688Z,96024.33
2019-03-12T21:15:34.248Z,96015.92
2019-03-12T21:20:13.681Z,96011.69
2019-03-12T21:24:42.430Z,95998.08
2019-03-12T21:29:23.362Z,95986.59
2019-03-12T21:33:25.260Z,95983.57
2019-03-12T21:37:27.160Z,95975.17
2019-03-12T21:41:29.116Z,95968.20
2019-03-12T21:45:31.008Z,95954.97
2019-03-12T21:49:33.256Z,95935.60
2019-03-12T21:53:35.148Z,95931.37
2019-03-12T21:57:37.063Z,95920.60
2019-03-12T22:01:38.958Z,95905.79
2019-03-12T22:05:40.958Z,95886.78
2019-03-12T22:09:42.861Z,95883.00
2019-03-12T22:13:44.767Z,95867.75
2019-03-12T22:17:47.501Z,95863.66
2019-03-12T22:21:54.070Z,95855.02
2019-03-12T22:25:56.198Z,95845.66
2019-03-12T22:29:58.044Z,95833.13
2019-03-12T22:33:59.943Z,95818.78
2019-03-12T22:38:01.865Z,95799.91
2019-03-12T22:42:03.933Z,95806.09
2019-03-12T22:46:05.889Z,95786.31
2019-03-12T22:50:18.274Z,95774.30
2019-03-12T22:58:47.241Z,95765.95
2019-03-12T23:03:07.418Z,95747.75
2019-03-12T23:07:27.068Z,95728.00
2019-03-12T23:11:30.564Z,95732.53
2019-03-12T23:15:32.871Z,95729.41
2019-03-12T23:19:34.846Z,95720.30
2019-03-12T23:23:36.753Z,95641.78
2019-03-12T23:27:38.648Z,95712.31
2019-03-12T23:31:40.634Z,95713.69
2019-03-12T23:35:42.537Z,95702.39
2019-03-12T23:39:44.473Z,95695.93
2019-03-12T23:43:46.424Z,95682.17
2019-03-12T23:47:50.334Z,95672.42
2019-03-12T23:51:51.996Z,95677.92
2019-03-12T23:55:54.125Z,95663.84
2019-03-12T23:59:56.143Z,95659.63
